createdAt,value
2022-11-03T00:00:38.001Z,1013.29
2022-11-03T00:01:38.133Z,1013.26
2022-11-03T00:03:38.117Z,1013.22
2022-11-03T00:04:38.128Z,1013.24
2022-11-03T00:05:38.162Z,1013.26
2022-11-03T00:06:38.190Z,1013.18
2022-11-03T00:07:38.220Z,1013.11
2022-11-03T00:08:38.247Z,1013.16
2022-11-03T00:09:38.282Z,1013.13
2022-11-03T00:10:38.309Z,1013.11
2022-11-03T00:11:38.341Z,1013.15
2022-11-03T00:12:38.371Z,1013.12
2022-11-03T00:13:38.402Z,1013.16
2022-11-03T00:14:38.433Z,1013.13
2022-11-03T00:16:38.496Z,1013.13
2022-11-03T00:17:38.529Z,1013.11
2022-11-03T00:18:38.557Z,1013.06
2022-11-03T00:19:38.613Z,1013.04
2022-11-03T00:20:38.618Z,1013.07
2022-11-03T00:21:38.649Z,1013.06
2022-11-03T00:22:38.684Z,1013.04
2022-11-03T00:23:38.708Z,1013.04
2022-11-03T00:24:38.744Z,1013.00
2022-11-03T00:25:38.771Z,1013.03
2022-11-03T00:26:38.804Z,1013.00
2022-11-03T00:27:38.841Z,1013.05
2022-11-03T00:28:38.868Z,1013.04
2022-11-03T00:29:38.893Z,1013.03
2022-11-03T00:30:38.937Z,1013.03
2022-11-03T00:31:38.963Z,1013.01
2022-11-03T00:32:38.989Z,1013.05
2022-11-03T00:33:39.018Z,1013.00
2022-11-03T00:34:39.049Z,1012.98
2022-11-03T00:35:39.101Z,1012.96
2022-11-03T00:36:39.211Z,1012.95
2022-11-03T00:37:39.141Z,1012.86
2022-11-03T00:38:39.172Z,1012.91
2022-11-03T00:39:39.203Z,1012.86
2022-11-03T00:41:39.274Z,1012.82
2022-11-03T00:42:39.309Z,1012.84
2022-11-03T00:43:39.331Z,1012.86
2022-11-03T00:44:39.354Z,1012.83
2022-11-03T00:45:39.388Z,1012.81
2022-11-03T00:46:39.422Z,1012.82
2022-11-03T00:47:39.451Z,1012.79
2022-11-03T00:48:39.481Z,1012.78
2022-11-03T00:50:39.542Z,1012.75
2022-11-03T00:51:39.603Z,1012.72
2022-11-03T00:52:39.706Z,1012.73
2022-11-03T00:53:39.635Z,1012.70
2022-11-03T00:54:41.101Z,1012.66
2022-11-03T00:55:39.694Z,1012.68
2022-11-03T00:56:39.728Z,1012.74
2022-11-03T00:57:39.764Z,1012.72
2022-11-03T00:58:39.790Z,1012.73
2022-11-03T00:59:39.917Z,1012.74
2022-11-03T01:01:45.340Z,1012.71
2022-11-03T01:02:40.053Z,1012.72
2022-11-03T01:03:39.942Z,1012.69
2022-11-03T01:04:39.974Z,1012.70
2022-11-03T01:05:40.007Z,1012.72
2022-11-03T01:06:40.034Z,1012.67
2022-11-03T01:07:40.085Z,1012.65
2022-11-03T01:08:40.094Z,1012.65
2022-11-03T01:09:40.131Z,1012.66
2022-11-03T01:10:40.156Z,1012.63
2022-11-03T01:11:40.197Z,1012.65
2022-11-03T01:12:40.219Z,1012.67
2022-11-03T01:13:40.255Z,1012.63
2022-11-03T01:14:40.283Z,1012.60
2022-11-03T01:16:40.349Z,1012.57
2022-11-03T01:18:40.403Z,1012.54
2022-11-03T01:19:40.434Z,1012.52
2022-11-03T01:20:40.465Z,1012.49
2022-11-03T01:21:40.595Z,1012.47
2022-11-03T01:22:40.523Z,1012.46
2022-11-03T01:23:40.578Z,1012.44
2022-11-03T01:24:40.593Z,1012.38
2022-11-03T01:25:40.630Z,1012.39
2022-11-03T01:27:40.783Z,1012.35
2022-11-03T01:28:40.713Z,1012.33
2022-11-03T01:29:40.748Z,1012.34
2022-11-03T01:30:40.774Z,1012.32
2022-11-03T01:31:40.804Z,1012.33
2022-11-03T01:32:40.832Z,1012.28
2022-11-03T01:33:40.866Z,1012.31
2022-11-03T01:34:40.905Z,1012.30
2022-11-03T01:35:40.930Z,1012.29
2022-11-03T01:36:40.961Z,1012.24
2022-11-03T01:38:41.021Z,1012.23
2022-11-03T01:39:41.071Z,1012.19
2022-11-03T01:40:41.084Z,1012.24
2022-11-03T01:42:41.241Z,1012.23
2022-11-03T01:43:41.175Z,1012.20
2022-11-03T01:44:41.204Z,1012.18
2022-11-03T01:45:41.238Z,1012.14
2022-11-03T01:46:41.267Z,1012.10
2022-11-03T01:47:41.316Z,1012.08
2022-11-03T01:48:41.324Z,1012.05
2022-11-03T01:50:41.394Z,1011.99
2022-11-03T01:51:41.417Z,1011.98
2022-11-03T01:52:41.452Z,1011.97
2022-11-03T01:53:41.481Z,1011.95
2022-11-03T01:54:41.516Z,1011.95
2022-11-03T01:55:41.562Z,1011.96
2022-11-03T01:56:41.573Z,1011.92
2022-11-03T01:57:41.605Z,1011.94
2022-11-03T01:58:41.636Z,1011.90
2022-11-03T01:59:41.671Z,1011.89
2022-11-03T02:00:41.698Z,1011.87
2022-11-03T02:02:41.757Z,1011.81
2022-11-03T02:03:41.796Z,1011.80
2022-11-03T02:04:41.820Z,1011.78
2022-11-03T02:05:41.857Z,1011.82
2022-11-03T02:06:41.883Z,1011.79
2022-11-03T02:07:41.916Z,1011.78
2022-11-03T02:08:41.941Z,1011.75
2022-11-03T02:10:42.006Z,1011.76
2022-11-03T02:11:42.059Z,1011.77
2022-11-03T02:12:42.069Z,1011.78
2022-11-03T02:13:42.094Z,1011.74
2022-11-03T02:14:42.125Z,1011.72
2022-11-03T02:15:42.159Z,1011.69
2022-11-03T02:17:42.216Z,1011.70
2022-11-03T02:18:42.245Z,1011.68
2022-11-03T02:19:42.280Z,1011.62
2022-11-03T02:20:42.311Z,1011.60
2022-11-03T02:21:42.345Z,1011.61
2022-11-03T02:23:42.401Z,1011.59
2022-11-03T02:24:42.435Z,1011.58
2022-11-03T02:25:42.468Z,1011.58
2022-11-03T02:27:42.548Z,1011.57
2022-11-03T02:28:42.621Z,1011.58
2022-11-03T02:29:42.586Z,1011.58
2022-11-03T02:30:42.617Z,1011.59
2022-11-03T02:31:42.650Z,1011.55
2022-11-03T02:32:42.676Z,1011.52
2022-11-03T02:33:42.712Z,1011.50
2022-11-03T02:35:42.771Z,1011.48
2022-11-03T02:36:42.809Z,1011.42
2022-11-03T02:37:42.830Z,1011.36
2022-11-03T02:38:42.861Z,1011.37
2022-11-03T02:39:42.891Z,1011.33
2022-11-03T02:40:42.925Z,1011.32
2022-11-03T02:41:42.955Z,1011.30
2022-11-03T02:42:42.985Z,1011.29
2022-11-03T02:43:43.039Z,1011.23
2022-11-03T02:44:43.047Z,1011.22
2022-11-03T02:46:43.106Z,1011.19
2022-11-03T02:47:43.138Z,1011.15
2022-11-03T02:48:43.166Z,1011.18
2022-11-03T02:49:43.221Z,1011.17
2022-11-03T02:51:43.258Z,1011.15
2022-11-03T02:52:43.303Z,1011.15
2022-11-03T02:53:43.326Z,1011.12
2022-11-03T02:54:43.353Z,1011.12
2022-11-03T02:55:43.382Z,1011.09
2022-11-03T02:56:43.417Z,1011.08
2022-11-03T02:57:43.497Z,1011.10
2022-11-03T02:58:43.481Z,1011.10
2022-11-03T02:59:43.528Z,1011.09
2022-11-03T03:00:43.604Z,1011.09
2022-11-03T03:01:43.780Z,1011.09
2022-11-03T03:02:43.601Z,1011.06
2022-11-03T03:03:43.933Z,1011.06
2022-11-03T03:04:43.664Z,1011.00
2022-11-03T03:05:43.690Z,1010.95
2022-11-03T03:06:43.722Z,1010.94
2022-11-03T03:07:43.753Z,1010.95
2022-11-03T03:09:43.814Z,1010.90
2022-11-03T03:10:43.844Z,1010.91
2022-11-03T03:11:43.874Z,1010.88
2022-11-03T03:12:44.006Z,1010.81
2022-11-03T03:13:43.935Z,1010.83
2022-11-03T03:14:43.972Z,1010.82
2022-11-03T03:16:44.162Z,1010.78
2022-11-03T03:17:44.058Z,1010.79
2022-11-03T03:18:44.092Z,1010.84
2022-11-03T03:19:44.125Z,1010.80
2022-11-03T03:20:44.151Z,1010.77
2022-11-03T03:21:44.189Z,1010.79
2022-11-03T03:22:44.313Z,1010.74
2022-11-03T03:23:44.246Z,1010.79
2022-11-03T03:24:44.273Z,1010.71
2022-11-03T03:25:44.304Z,1010.70
2022-11-03T03:26:44.336Z,1010.72
2022-11-03T03:27:44.377Z,1010.69
2022-11-03T03:28:44.402Z,1010.71
2022-11-03T03:29:44.727Z,1010.74
2022-11-03T03:30:44.458Z,1010.76
2022-11-03T03:31:44.488Z,1010.72
2022-11-03T03:32:44.539Z,1010.73
2022-11-03T03:33:47.605Z,1010.71
2022-11-03T03:34:44.580Z,1010.71
2022-11-03T03:35:44.610Z,1010.65
2022-11-03T03:36:44.641Z,1010.65
2022-11-03T03:37:44.669Z,1010.66
2022-11-03T03:38:44.705Z,1010.70
2022-11-03T03:39:44.729Z,1010.66
2022-11-03T03:40:44.762Z,1010.65
2022-11-03T03:41:44.794Z,1010.59
2022-11-03T03:42:44.824Z,1010.53
2022-11-03T03:43:44.853Z,1010.59
2022-11-03T03:44:44.986Z,1010.54
2022-11-03T03:45:44.917Z,1010.54
2022-11-03T03:46:44.949Z,1010.50
2022-11-03T03:47:44.977Z,1010.54
2022-11-03T03:48:45.033Z,1010.52
2022-11-03T03:49:45.043Z,1010.53
2022-11-03T03:50:45.069Z,1010.57
2022-11-03T03:51:45.140Z,1010.56
2022-11-03T03:52:45.131Z,1010.44
2022-11-03T03:53:45.162Z,1010.40
2022-11-03T03:54:45.192Z,1010.42
2022-11-03T03:55:45.226Z,1010.45
2022-11-03T03:56:45.254Z,1010.43
2022-11-03T03:57:45.286Z,1010.40
2022-11-03T03:58:45.317Z,1010.44
2022-11-03T03:59:45.347Z,1010.37
2022-11-03T04:00:45.487Z,1010.27
2022-11-03T04:01:45.663Z,1010.30
2022-11-03T04:02:45.438Z,1010.27
2022-11-03T04:03:45.468Z,1010.24
2022-11-03T04:04:45.523Z,1010.24
2022-11-03T04:05:45.531Z,1010.29
2022-11-03T04:06:45.559Z,1010.25
2022-11-03T04:08:45.621Z,1010.24
2022-11-03T04:09:45.658Z,1010.25
2022-11-03T04:10:45.684Z,1010.24
2022-11-03T04:12:45.747Z,1010.20
2022-11-03T04:13:45.773Z,1010.15
2022-11-03T04:14:45.805Z,1010.14
2022-11-03T04:16:45.864Z,1010.18
2022-11-03T04:17:45.914Z,1010.18
2022-11-03T04:18:45.926Z,1010.18
2022-11-03T04:19:45.961Z,1010.14
2022-11-03T04:20:46.009Z,1010.14
2022-11-03T04:21:46.030Z,1010.10
2022-11-03T04:22:46.052Z,1010.13
2022-11-03T04:23:46.081Z,1010.12
2022-11-03T04:24:46.212Z,1010.11
2022-11-03T04:25:46.145Z,1010.14
2022-11-03T04:26:46.178Z,1010.08
2022-11-03T04:28:46.234Z,1010.03
2022-11-03T04:29:46.264Z,1010.05
2022-11-03T04:30:46.307Z,1010.03
2022-11-03T04:31:46.327Z,1010.03
2022-11-03T04:32:46.365Z,1010.04
2022-11-03T04:33:46.390Z,1009.99
2022-11-03T04:34:46.417Z,1009.96
2022-11-03T04:35:46.451Z,1009.97
2022-11-03T04:36:46.499Z,1009.94
2022-11-03T04:37:47.799Z,1009.92
2022-11-03T04:38:46.545Z,1009.93
2022-11-03T04:39:46.583Z,1009.95
2022-11-03T04:40:49.099Z,1009.91
2022-11-03T04:41:46.635Z,1009.90
2022-11-03T04:42:46.668Z,1009.92
2022-11-03T04:43:46.696Z,1009.91
2022-11-03T04:44:46.723Z,1009.89
2022-11-03T04:45:46.753Z,1009.87
2022-11-03T04:46:46.797Z,1009.90
2022-11-03T04:47:46.816Z,1009.89
2022-11-03T04:48:46.853Z,1009.87
2022-11-03T04:49:46.880Z,1009.84
2022-11-03T04:50:47.220Z,1009.84
2022-11-03T04:51:47.039Z,1009.83
2022-11-03T04:52:47.292Z,1009.88
2022-11-03T04:53:47.007Z,1009.77
2022-11-03T04:54:47.032Z,1009.77
2022-11-03T04:56:47.090Z,1009.74
2022-11-03T04:57:47.123Z,1009.72
2022-11-03T04:58:47.151Z,1009.71
2022-11-03T04:59:47.195Z,1009.71
2022-11-03T05:00:47.245Z,1009.67
2022-11-03T05:01:47.396Z,1009.66
2022-11-03T05:02:49.101Z,1009.68
2022-11-03T05:03:47.308Z,1009.63
2022-11-03T05:04:47.336Z,1009.63
2022-11-03T05:05:47.373Z,1009.63
2022-11-03T05:06:47.396Z,1009.60
2022-11-03T05:07:47.430Z,1009.60
2022-11-03T05:08:47.476Z,1009.57
2022-11-03T05:09:47.490Z,1009.54
2022-11-03T05:10:47.518Z,1009.58
2022-11-03T05:11:47.552Z,1009.52
2022-11-03T05:12:47.581Z,1009.50
2022-11-03T05:13:47.615Z,1009.51
2022-11-03T05:14:47.739Z,1009.43
2022-11-03T05:15:47.671Z,1009.45
2022-11-03T05:16:47.701Z,1009.46
2022-11-03T05:17:47.735Z,1009.43
2022-11-03T05:18:47.766Z,1009.40
2022-11-03T05:19:47.803Z,1009.37
2022-11-03T05:20:47.828Z,1009.41
2022-11-03T05:21:47.887Z,1009.32
2022-11-03T05:22:47.891Z,1009.34
2022-11-03T05:23:47.917Z,1009.33
2022-11-03T05:24:47.970Z,1009.32
2022-11-03T05:25:47.983Z,1009.31
2022-11-03T05:27:48.057Z,1009.34
2022-11-03T05:28:48.072Z,1009.35
2022-11-03T05:29:48.100Z,1009.33
2022-11-03T05:30:48.134Z,1009.32
2022-11-03T05:31:48.164Z,1009.30
2022-11-03T05:32:48.200Z,1009.35
2022-11-03T05:33:48.223Z,1009.33
2022-11-03T05:34:48.254Z,1009.33
2022-11-03T05:35:48.287Z,1009.32
2022-11-03T05:36:48.322Z,1009.37
2022-11-03T05:37:48.351Z,1009.40
2022-11-03T05:39:48.410Z,1009.39
2022-11-03T05:40:48.454Z,1009.42
2022-11-03T05:41:48.469Z,1009.35
2022-11-03T05:42:48.499Z,1009.32
2022-11-03T05:43:48.547Z,1009.29
2022-11-03T05:45:48.595Z,1009.33
2022-11-03T05:46:48.623Z,1009.33
2022-11-03T05:47:48.765Z,1009.30
2022-11-03T05:48:48.688Z,1009.28
2022-11-03T05:49:48.718Z,1009.29
2022-11-03T05:50:48.743Z,1009.31
2022-11-03T05:51:48.774Z,1009.30
2022-11-03T05:52:48.809Z,1009.22
2022-11-03T05:54:48.865Z,1009.22
2022-11-03T05:55:48.896Z,1009.19
2022-11-03T05:56:49.052Z,1009.15
2022-11-03T05:57:48.959Z,1009.13
2022-11-03T06:00:49.171Z,1009.02
2022-11-03T06:02:49.147Z,1009.04
2022-11-03T06:03:49.140Z,1009.02
2022-11-03T06:04:49.275Z,1009.00
2022-11-03T06:05:49.206Z,1008.98
2022-11-03T06:06:49.234Z,1009.00
2022-11-03T06:07:49.267Z,1009.03
2022-11-03T06:08:49.295Z,1009.01
2022-11-03T06:09:49.324Z,1008.98
2022-11-03T06:10:49.358Z,1009.03
2022-11-03T06:11:49.386Z,1008.98
2022-11-03T06:12:49.437Z,1008.92
2022-11-03T06:13:49.448Z,1008.95
2022-11-03T06:14:49.479Z,1008.90
2022-11-03T06:15:49.511Z,1008.83
2022-11-03T06:16:49.542Z,1008.78
2022-11-03T06:17:49.576Z,1008.71
2022-11-03T06:18:49.603Z,1008.70
2022-11-03T06:19:49.633Z,1008.69
2022-11-03T06:20:49.668Z,1008.68
2022-11-03T06:21:49.696Z,1008.64
2022-11-03T06:22:49.734Z,1008.64
2022-11-03T06:23:49.755Z,1008.63
2022-11-03T06:24:49.784Z,1008.65
2022-11-03T06:25:49.817Z,1008.66
2022-11-03T06:26:49.859Z,1008.64
2022-11-03T06:27:49.878Z,1008.57
2022-11-03T06:28:49.923Z,1008.57
2022-11-03T06:29:49.941Z,1008.48
2022-11-03T06:30:51.311Z,1008.47
2022-11-03T06:31:50.005Z,1008.47
2022-11-03T06:32:50.040Z,1008.49
2022-11-03T06:33:50.061Z,1008.48
2022-11-03T06:34:50.091Z,1008.43
2022-11-03T06:35:50.124Z,1008.42
2022-11-03T06:36:50.159Z,1008.40
2022-11-03T06:37:50.235Z,1008.38
2022-11-03T06:38:50.217Z,1008.36
2022-11-03T06:39:50.247Z,1008.32
2022-11-03T06:41:50.307Z,1008.30
2022-11-03T06:42:50.336Z,1008.31
2022-11-03T06:43:50.366Z,1008.27
2022-11-03T06:45:50.450Z,1008.21
2022-11-03T06:46:50.461Z,1008.20
2022-11-03T06:47:50.496Z,1008.21
2022-11-03T06:48:50.524Z,1008.21
2022-11-03T06:49:50.555Z,1008.14
2022-11-03T06:50:50.588Z,1008.16
2022-11-03T06:51:50.611Z,1008.13
2022-11-03T06:52:50.656Z,1008.08
2022-11-03T06:53:50.678Z,1008.11
2022-11-03T06:54:50.700Z,1008.12
2022-11-03T06:55:50.735Z,1008.05
2022-11-03T06:56:50.768Z,1008.05
2022-11-03T06:57:50.797Z,1008.02
2022-11-03T06:58:50.828Z,1008.02
2022-11-03T06:59:57.023Z,1008.04
2022-11-03T07:00:51.953Z,1008.07
2022-11-03T07:01:51.101Z,1008.12
2022-11-03T07:02:50.951Z,1008.07
2022-11-03T07:04:51.013Z,1008.11
2022-11-03T07:05:51.043Z,1008.09
2022-11-03T07:06:53.620Z,1008.10
2022-11-03T07:07:51.101Z,1008.12
2022-11-03T07:08:51.234Z,1008.14
2022-11-03T07:09:51.163Z,1008.15
2022-11-03T07:10:51.198Z,1008.08
2022-11-03T07:11:51.228Z,1008.09
2022-11-03T07:12:51.255Z,1008.08
2022-11-03T07:13:51.287Z,1008.07
2022-11-03T07:14:51.316Z,1008.08
2022-11-03T07:15:51.347Z,1007.99
2022-11-03T07:16:51.379Z,1008.03
2022-11-03T07:17:51.428Z,1008.07
2022-11-03T07:18:51.438Z,1008.03
2022-11-03T07:19:51.471Z,1008.06
2022-11-03T07:20:51.502Z,1008.06
2022-11-03T07:22:51.569Z,1008.00
2022-11-03T07:23:51.595Z,1008.04
2022-11-03T07:24:51.625Z,1008.04
2022-11-03T07:25:51.656Z,1008.05
2022-11-03T07:27:51.713Z,1008.03
2022-11-03T07:28:51.748Z,1008.00
2022-11-03T07:29:51.780Z,1008.02
2022-11-03T07:30:51.811Z,1008.03
2022-11-03T07:31:51.837Z,1008.02
2022-11-03T07:32:51.870Z,1008.00
2022-11-03T07:34:51.948Z,1008.00
2022-11-03T07:36:14.548Z,1008.04
2022-11-03T07:36:55.712Z,1008.01
2022-11-03T07:37:52.022Z,1008.02
2022-11-03T07:38:52.155Z,1008.01
2022-11-03T07:39:52.089Z,1007.99
2022-11-03T07:40:52.117Z,1008.01
2022-11-03T07:41:52.148Z,1007.95
2022-11-03T07:42:52.176Z,1007.99
2022-11-03T07:43:52.208Z,1007.99
2022-11-03T07:44:52.240Z,1007.95
2022-11-03T07:45:52.269Z,1007.90
2022-11-03T07:46:52.320Z,1007.89
2022-11-03T07:47:52.330Z,1007.86
2022-11-03T07:48:52.364Z,1007.87
2022-11-03T07:49:52.399Z,1007.85
2022-11-03T07:50:52.460Z,1007.83
2022-11-03T07:51:52.454Z,1007.80
2022-11-03T07:52:52.496Z,1007.77
2022-11-03T07:54:52.545Z,1007.73
2022-11-03T07:55:52.627Z,1007.73
2022-11-03T07:56:52.612Z,1007.71
2022-11-03T07:57:52.641Z,1007.69
2022-11-03T07:58:52.675Z,1007.67
2022-11-03T07:59:52.702Z,1007.72
2022-11-03T08:00:52.939Z,1007.68
2022-11-03T08:01:52.916Z,1007.68
2022-11-03T08:02:52.864Z,1007.67
2022-11-03T08:03:52.832Z,1007.68
2022-11-03T08:04:52.860Z,1007.69
2022-11-03T08:05:52.886Z,1007.69
2022-11-03T08:06:52.973Z,1007.68
2022-11-03T08:07:52.954Z,1007.65
2022-11-03T08:08:52.980Z,1007.61
2022-11-03T08:09:53.009Z,1007.64
2022-11-03T08:10:53.041Z,1007.57
2022-11-03T08:11:53.071Z,1007.56
2022-11-03T08:12:53.106Z,1007.53
2022-11-03T08:13:53.135Z,1007.57
2022-11-03T08:14:53.173Z,1007.60
2022-11-03T08:15:53.196Z,1007.60
2022-11-03T08:16:53.233Z,1007.62
2022-11-03T08:17:56.121Z,1007.57
2022-11-03T08:18:53.291Z,1007.59
2022-11-03T08:19:53.333Z,1007.58
2022-11-03T08:20:53.360Z,1007.52
2022-11-03T08:21:53.396Z,1007.49
2022-11-03T08:23:19.742Z,1007.54
2022-11-03T08:23:53.492Z,1007.50
2022-11-03T08:24:53.478Z,1007.51
2022-11-03T08:25:53.505Z,1007.50
2022-11-03T08:26:53.541Z,1007.44
2022-11-03T08:27:53.568Z,1007.46
2022-11-03T08:28:53.600Z,1007.43
2022-11-03T08:29:53.628Z,1007.43
2022-11-03T08:31:53.692Z,1007.41
2022-11-03T08:32:53.720Z,1007.46
2022-11-03T08:33:53.755Z,1007.39
2022-11-03T08:34:53.782Z,1007.42
2022-11-03T08:35:53.815Z,1007.40
2022-11-03T08:36:53.841Z,1007.41
2022-11-03T08:37:53.891Z,1007.44
2022-11-03T08:38:53.932Z,1007.42
2022-11-03T08:39:53.939Z,1007.39
2022-11-03T08:40:55.340Z,1007.36
2022-11-03T08:41:54.006Z,1007.35
2022-11-03T08:42:54.034Z,1007.32
2022-11-03T08:43:54.066Z,1007.30
2022-11-03T08:44:54.095Z,1007.28
2022-11-03T08:45:54.338Z,1007.23
2022-11-03T08:46:54.158Z,1007.23
2022-11-03T08:47:54.186Z,1007.15
2022-11-03T08:48:54.215Z,1007.17
2022-11-03T08:49:54.254Z,1007.08
2022-11-03T08:50:54.285Z,1007.10
2022-11-03T08:51:54.314Z,1007.08
2022-11-03T08:52:54.345Z,1007.06
2022-11-03T08:53:54.395Z,1007.02
2022-11-03T08:54:54.551Z,1007.01
2022-11-03T08:55:54.435Z,1007.00
2022-11-03T08:56:54.469Z,1006.98
2022-11-03T08:57:54.498Z,1006.93
2022-11-03T08:58:54.525Z,1006.98
2022-11-03T08:59:54.560Z,1006.96
2022-11-03T09:00:54.596Z,1006.95
2022-11-03T09:02:54.705Z,1006.97
2022-11-03T09:03:54.769Z,1006.94
2022-11-03T09:04:54.721Z,1006.92
2022-11-03T09:05:54.745Z,1006.95
2022-11-03T09:06:54.777Z,1006.98
2022-11-03T09:10:54.923Z,1006.90
2022-11-03T09:11:54.931Z,1006.86
2022-11-03T09:12:54.985Z,1006.86
2022-11-03T09:13:54.998Z,1006.84
2022-11-03T09:14:55.030Z,1006.83
2022-11-03T09:15:55.059Z,1006.84
2022-11-03T09:16:55.127Z,1006.75
2022-11-03T09:17:55.121Z,1006.75
2022-11-03T09:19:55.183Z,1006.69
2022-11-03T09:20:55.219Z,1006.63
2022-11-03T09:21:55.245Z,1006.60
2022-11-03T09:22:55.283Z,1006.53
2022-11-03T09:23:55.307Z,1006.49
2022-11-03T09:25:55.413Z,1006.43
2022-11-03T09:27:00.994Z,1006.43
2022-11-03T09:27:55.433Z,1006.41
2022-11-03T09:28:55.462Z,1006.40
2022-11-03T09:30:12.209Z,1006.39
2022-11-03T09:30:55.528Z,1006.40
2022-11-03T09:31:55.558Z,1006.40
2022-11-03T09:32:55.587Z,1006.34
2022-11-03T09:33:55.619Z,1006.34
2022-11-03T09:34:55.665Z,1006.30
2022-11-03T09:35:55.684Z,1006.30
2022-11-03T09:36:55.716Z,1006.29
2022-11-03T09:37:55.744Z,1006.23
2022-11-03T09:38:55.778Z,1006.13
2022-11-03T09:39:55.811Z,1006.04
2022-11-03T09:40:55.838Z,1006.04
2022-11-03T09:42:55.922Z,1005.99
2022-11-03T09:43:55.931Z,1006.01
2022-11-03T09:44:55.964Z,1005.96
2022-11-03T09:45:55.993Z,1006.00
2022-11-03T09:46:58.364Z,1005.97
2022-11-03T09:47:56.086Z,1005.98
2022-11-03T09:48:56.095Z,1005.94
2022-11-03T09:49:56.127Z,1005.92
2022-11-03T09:50:56.150Z,1005.83
2022-11-03T09:52:56.315Z,1005.81
2022-11-03T09:53:56.259Z,1005.79
2022-11-03T09:54:56.276Z,1005.80
2022-11-03T09:55:56.307Z,1005.76
2022-11-03T09:56:56.338Z,1005.77
2022-11-03T09:57:56.373Z,1005.75
2022-11-03T09:58:56.432Z,1005.71
2022-11-03T09:59:56.448Z,1005.61
2022-11-03T10:00:56.548Z,1005.52
2022-11-03T10:01:56.614Z,1005.53
2022-11-03T10:02:56.534Z,1005.47
2022-11-03T10:03:56.563Z,1005.41
2022-11-03T10:04:56.650Z,1005.39
2022-11-03T10:05:56.622Z,1005.38
2022-11-03T10:06:56.658Z,1005.38
2022-11-03T10:07:56.692Z,1005.36
2022-11-03T10:08:56.716Z,1005.38
2022-11-03T10:09:56.751Z,1005.36
2022-11-03T10:10:56.776Z,1005.40
2022-11-03T10:11:56.810Z,1005.45
2022-11-03T10:12:56.842Z,1005.47
2022-11-03T10:13:56.877Z,1005.42
2022-11-03T10:14:56.928Z,1005.45
2022-11-03T10:15:56.937Z,1005.45
2022-11-03T10:16:56.976Z,1005.49
2022-11-03T10:17:57.008Z,1005.45
2022-11-03T10:18:57.355Z,1005.43
2022-11-03T10:20:57.097Z,1005.37
2022-11-03T10:21:57.125Z,1005.33
2022-11-03T10:22:57.158Z,1005.32
2022-11-03T10:23:57.193Z,1005.26
2022-11-03T10:24:57.227Z,1005.27
2022-11-03T10:25:57.250Z,1005.24
2022-11-03T10:26:57.302Z,1005.23
2022-11-03T10:27:57.316Z,1005.25
2022-11-03T10:28:57.346Z,1005.16
2022-11-03T10:29:58.063Z,1005.16
2022-11-03T10:31:11.251Z,1005.04
2022-11-03T10:31:57.440Z,1004.98
2022-11-03T10:32:57.475Z,1004.91
2022-11-03T10:33:57.511Z,1004.86
2022-11-03T10:34:57.561Z,1004.83
2022-11-03T10:35:57.571Z,1004.85
2022-11-03T10:36:57.603Z,1004.80
2022-11-03T10:37:57.635Z,1004.78
2022-11-03T10:38:57.685Z,1004.76
2022-11-03T10:39:57.697Z,1004.75
2022-11-03T10:40:57.730Z,1004.71
2022-11-03T10:41:58.065Z,1004.66
2022-11-03T10:42:57.789Z,1004.67
2022-11-03T10:43:57.882Z,1004.66
2022-11-03T10:44:57.855Z,1004.66
2022-11-03T10:45:57.885Z,1004.62
2022-11-03T10:46:57.939Z,1004.55
2022-11-03T10:48:00.557Z,1004.48
2022-11-03T10:48:58.002Z,1004.42
2022-11-03T10:49:58.018Z,1004.39
2022-11-03T10:50:58.041Z,1004.30
2022-11-03T10:51:58.079Z,1004.34
2022-11-03T10:52:58.111Z,1004.33
2022-11-03T10:54:58.174Z,1004.21
2022-11-03T10:55:58.200Z,1004.19
2022-11-03T10:56:58.240Z,1004.15
2022-11-03T10:59:58.333Z,1004.04
2022-11-03T11:00:58.496Z,1004.02
2022-11-03T11:01:58.462Z,1004.03
2022-11-03T11:02:58.445Z,1004.04
2022-11-03T11:03:58.477Z,1004.06
2022-11-03T11:04:58.488Z,1004.09
2022-11-03T11:06:58.554Z,1004.14
2022-11-03T11:07:58.643Z,1004.21
2022-11-03T11:09:00.054Z,1004.27
2022-11-03T11:09:58.649Z,1004.27
2022-11-03T11:11:58.713Z,1004.31
2022-11-03T11:12:58.749Z,1004.30
2022-11-03T11:13:58.783Z,1004.26
2022-11-03T11:14:58.812Z,1004.23
2022-11-03T11:15:58.841Z,1004.18
2022-11-03T11:16:58.868Z,1004.16
2022-11-03T11:17:58.909Z,1004.20
2022-11-03T11:18:58.955Z,1004.25
2022-11-03T11:19:58.970Z,1004.20
2022-11-03T11:20:59.003Z,1004.20
2022-11-03T11:21:59.033Z,1004.19
2022-11-03T11:22:59.064Z,1004.18
2022-11-03T11:23:59.101Z,1004.15
2022-11-03T11:24:59.125Z,1004.20
2022-11-03T11:25:59.156Z,1004.20
2022-11-03T11:26:59.188Z,1004.23
2022-11-03T11:27:59.242Z,1004.26
2022-11-03T11:28:59.260Z,1004.25
2022-11-03T11:29:59.290Z,1004.24
2022-11-03T11:30:59.319Z,1004.20
2022-11-03T11:31:59.351Z,1004.21
2022-11-03T11:32:59.384Z,1004.27
2022-11-03T11:33:59.411Z,1004.22
2022-11-03T11:34:59.459Z,1004.22
2022-11-03T11:35:59.485Z,1004.23
2022-11-03T11:36:59.509Z,1004.16
2022-11-03T11:37:59.542Z,1004.08
2022-11-03T11:38:59.676Z,1004.11
2022-11-03T11:39:59.612Z,1004.07
2022-11-03T11:40:59.635Z,1003.97
2022-11-03T11:41:59.667Z,1003.98
2022-11-03T11:42:59.799Z,1003.95
2022-11-03T11:44:59.762Z,1003.89
2022-11-03T11:45:59.793Z,1003.80
2022-11-03T11:46:59.837Z,1003.78
2022-11-03T11:49:59.926Z,1003.59
2022-11-03T11:50:59.977Z,1003.54
2022-11-03T11:51:59.993Z,1003.49
2022-11-03T11:53:00.032Z,1003.51
2022-11-03T11:54:17.017Z,1003.43
2022-11-03T11:55:00.089Z,1003.41
2022-11-03T11:56:00.120Z,1003.36
2022-11-03T11:57:00.148Z,1003.27
2022-11-03T11:58:00.185Z,1003.21
2022-11-03T11:59:00.219Z,1003.17
2022-11-03T12:00:00.241Z,1003.20
2022-11-03T12:01:00.275Z,1003.15
2022-11-03T12:02:00.458Z,1003.07
2022-11-03T12:03:00.413Z,1003.10
2022-11-03T12:04:00.553Z,1003.05
2022-11-03T12:06:00.439Z,1003.05
2022-11-03T12:07:00.481Z,1003.08
2022-11-03T12:08:00.511Z,1002.95
2022-11-03T12:09:00.632Z,1002.86
2022-11-03T12:10:00.564Z,1002.77
2022-11-03T12:11:00.684Z,1002.81
2022-11-03T12:12:05.305Z,1002.81
2022-11-03T12:13:00.694Z,1002.73
2022-11-03T12:14:00.693Z,1002.77
2022-11-03T12:15:00.718Z,1002.81
2022-11-03T12:16:00.753Z,1002.79
2022-11-03T12:19:00.880Z,1002.73
2022-11-03T12:20:00.880Z,1002.74
2022-11-03T12:21:00.911Z,1002.68
2022-11-03T12:23:00.999Z,1002.72
2022-11-03T12:24:01.012Z,1002.70
2022-11-03T12:25:01.042Z,1002.71
2022-11-03T12:26:01.070Z,1002.67
2022-11-03T12:27:01.218Z,1002.70
2022-11-03T12:28:01.141Z,1002.64
2022-11-03T12:29:01.166Z,1002.57
2022-11-03T12:30:01.198Z,1002.56
2022-11-03T12:31:01.232Z,1002.57
2022-11-03T12:32:01.260Z,1002.51
2022-11-03T12:33:01.294Z,1002.51
2022-11-03T12:34:01.327Z,1002.44
2022-11-03T12:35:01.360Z,1002.35
2022-11-03T12:36:01.387Z,1002.32
2022-11-03T12:37:01.423Z,1002.32
2022-11-03T12:38:01.452Z,1002.28
2022-11-03T12:39:01.519Z,1002.25
2022-11-03T12:40:01.580Z,1002.26
2022-11-03T12:41:01.553Z,1002.31
2022-11-03T12:42:01.579Z,1002.26
2022-11-03T12:43:01.612Z,1002.25
2022-11-03T12:44:01.700Z,1002.25
2022-11-03T12:45:01.680Z,1002.29
2022-11-03T12:46:01.709Z,1002.25
2022-11-03T12:48:01.856Z,1002.21
2022-11-03T12:49:01.804Z,1002.12
2022-11-03T12:50:01.836Z,1002.05
2022-11-03T12:51:01.867Z,1002.06
2022-11-03T12:52:06.860Z,1002.01
2022-11-03T12:53:01.951Z,1001.97
2022-11-03T12:54:01.965Z,1001.88
2022-11-03T12:55:02.010Z,1001.86
2022-11-03T12:56:02.041Z,1001.86
2022-11-03T12:57:02.064Z,1001.76
2022-11-03T12:59:02.128Z,1001.66
2022-11-03T13:00:02.154Z,1001.61
2022-11-03T13:01:02.459Z,1001.59
2022-11-03T13:02:02.350Z,1001.60
2022-11-03T13:03:02.555Z,1001.61
2022-11-03T13:04:02.292Z,1001.61
2022-11-03T13:05:02.319Z,1001.56
2022-11-03T13:07:02.383Z,1001.52
2022-11-03T13:08:02.421Z,1001.53
2022-11-03T13:09:02.447Z,1001.50
2022-11-03T13:10:02.474Z,1001.48
2022-11-03T13:12:02.559Z,1001.43